< < Back
Terminal Aerodrome Forecast


Current Version              Previous Versions:   1  2  3  4  5  6  7  8  9  

Terminal Aerodrome Forecast

907
FTUS42 KFFC 010523
TAFAHN
TAF
KAHN 010523Z 0106/0206 03004KT P6SM SCT060
     FM011600 05006KT P6SM SCT040
     FM012200 01005KT P6SM SCT050
     FM020200 00000KT P6SM FEW250=

Latest METAR

777
SAUS70 KWBC 011200 RRG
MTRAHN
METAR KAHN 011151Z 06004KT 9SM BKN048 BKN100 24/17 A2997 RMK AO2 SLP138
T02390167 10250 20228 53009


USA.gov is the U.S. government's official web portal to all federal, state and local government web resources and services.